Bookmark and Share
Track history (hours):
 

Deo Volente

Last reported at 2014-Apr-18 22:20 UTC. Time now 2014-Apr-20 05:47 UTC.
Position N 59°26' E 005°14'.

Length 105 m; draft 5.2 m.

Type: Cargo ship. MMSI: 246518000.

NotesDate/timePositionNaut miles runAvg speedWind from/ knotsBaromVisibWave heightAir tempDewpointWater temp
2014-Apr-18 22:20N 59°26' E 005°14'1 0.3
2014-Apr-18 19:25N 59°25' E 005°15'0 0.0
2014-Apr-18 18:04N 59°25' E 005°15'0 0.0
2014-Apr-18 17:33N 59°25' E 005°15'8 1.6
2014-Apr-18 12:28N 59°18' E 005°20'1415.1
2014-Apr-18 11:33N 59°04' E 005°21'1514.7
2014-Apr-18 10:33N 58°49' E 005°19'17613.5
2014-Apr-17 21:33N 55°60' E 003°55'22315.7
2014-Apr-17 07:23N 52°24' E 002°21'1417.5
2014-Apr-17 06:33N 52°10' E 002°16'1918.4
2014-Apr-17 05:32N 51°51' E 002°09'1918.6
2014-Apr-17 04:32N 51°35' E 001°55'1919.3
2014-Apr-17 03:33N 51°18' E 001°43'1413.7
2014-Apr-17 02:33N 51°05' E 001°37'2419.5
2014-Apr-17 01:20N 50°43' E 001°21'1818.8
2014-Apr-17 00:24N 50°31' E 001°01'1517.9
2014-Apr-16 23:33N 50°18' E 000°47'1818.3
2014-Apr-16 22:33N 50°04' E 000°30'2819.2
2014-Apr-16 21:06N 49°43' E 000°02'1017.7
2014-Apr-16 20:33N 49°33' W 000°01'1111.4
2014-Apr-16 19:33N 49°26' E 000°13'1312.7
2014-Apr-16 18:33N 49°28' E 000°32'5 0.2
2014-Apr-15 12:31N 49°28' E 000°40'8 8.6
2014-Apr-15 11:34N 49°28' E 000°28'1211.8
2014-Apr-15 10:34N 49°26' E 000°10'1212.1
2014-Apr-15 09:34N 49°31' W 000°07'7111.8
2014-Apr-15 03:34N 50°36' E 000°39'1313.2
2014-Apr-15 02:34N 50°45' E 000°54'1312.9
2014-Apr-15 01:33N 50°53' E 001°09'1312.8
2014-Apr-15 00:34N 51°02' E 001°24'1312.8
2014-Apr-14 23:34N 51°10' E 001°39'1413.5
2014-Apr-14 22:34N 51°21' E 001°54'1110.7
2014-Apr-14 21:33N 51°22' E 002°11'1211.7
2014-Apr-14 20:33N 51°23' E 002°29'1312.8
2014-Apr-14 19:34N 51°22' E 002°50'1413.6
2014-Apr-14 18:34N 51°24' E 003°11'1414.3
2014-Apr-14 17:34N 51°26' E 003°34'1110.7
2014-Apr-14 16:34N 51°20' E 003°49'2 2.1
2014-Apr-14 15:34N 51°18' E 003°50'2 2.3
2014-Apr-14 14:33N 51°16' E 003°50'0 0.0
2014-Apr-14 13:33N 51°16' E 003°50'0 0.0
2014-Apr-14 08:33N 51°16' E 003°50'0 0.0
2014-Apr-14 07:33N 51°16' E 003°50'0 0.0
2014-Apr-14 06:33N 51°16' E 003°50'0 0.0
2014-Apr-14 05:34N 51°16' E 003°50'0 0.0
2014-Apr-13 22:33N 51°16' E 003°50'0 0.0
2014-Apr-13 21:33N 51°16' E 003°50'0 0.0
2014-Apr-13 20:33N 51°16' E 003°50'0 0.0
2014-Apr-13 19:33N 51°16' E 003°50'0 0.0
2014-Apr-13 18:34N 51°16' E 003°50'0 0.0
2014-Apr-13 17:33N 51°16' E 003°50'0 0.0
2014-Apr-13 16:33N 51°16' E 003°50'0 0.0
2014-Apr-13 15:33N 51°16' E 003°50'0 0.0
2014-Apr-13 14:33N 51°16' E 003°50'0 0.0
2014-Apr-13 13:33N 51°16' E 003°50'0 0.0
2014-Apr-13 12:33N 51°16' E 003°50'0 0.0
2014-Apr-13 11:33N 51°16' E 003°50'0 0.0
2014-Apr-13 10:33N 51°16' E 003°50'0 0.0
2014-Apr-13 09:33N 51°16' E 003°50'0 0.0
2014-Apr-13 08:33N 51°16' E 003°50'0 0.0
2014-Apr-13 07:33N 51°16' E 003°50'0 0.0
2014-Apr-13 06:33N 51°16' E 003°50'0 0.0
2014-Apr-13 05:33N 51°16' E 003°50'0 0.0
2014-Apr-13 04:33N 51°16' E 003°50'0 0.0
2014-Apr-13 03:33N 51°16' E 003°50'0 0.0
2014-Apr-13 02:33N 51°16' E 003°50'0 0.0
2014-Apr-13 01:33N 51°16' E 003°50'0 0.0
2014-Apr-13 00:33N 51°16' E 003°50'0 0.0
2014-Apr-12 23:33N 51°16' E 003°50'0 0.0
2014-Apr-12 22:33N 51°16' E 003°50'0 0.0
2014-Apr-12 21:33N 51°16' E 003°50'0 0.0
2014-Apr-12 20:33N 51°16' E 003°50'0 0.0
2014-Apr-12 19:33N 51°16' E 003°50'0 0.0
2014-Apr-12 18:33N 51°16' E 003°50'0 0.0
2014-Apr-12 17:33N 51°16' E 003°50'0 0.0
2014-Apr-12 16:33N 51°16' E 003°50'0 0.0
2014-Apr-12 15:33N 51°16' E 003°50'0 0.0
2014-Apr-12 14:33N 51°16' E 003°50'0 0.0
2014-Apr-12 13:33N 51°16' E 003°50'0 0.0
2014-Apr-12 12:33N 51°16' E 003°50'0 0.0
2014-Apr-12 11:33N 51°16' E 003°50'0 0.0
2014-Apr-12 10:33N 51°16' E 003°50'0 0.0
2014-Apr-12 09:33N 51°16' E 003°50'0 0.0
2014-Apr-12 08:33N 51°16' E 003°50'0 0.0
2014-Apr-12 07:33N 51°16' E 003°50'3 3.2
2014-Apr-12 06:34N 51°19' E 003°50'2 1.7
2014-Apr-12 05:34N 51°20' E 003°49'10 9.5
2014-Apr-12 04:34N 51°26' E 003°36'7 6.9
2014-Apr-12 03:34N 51°30' E 003°27'9 9.1
2014-Apr-12 02:33N 51°38' E 003°20'9 8.9
2014-Apr-12 01:33N 51°46' E 003°14'1815.8
2014-Apr-12 00:23N 52°04' E 003°20'2915.9
2014-Apr-11 22:33N 52°32' E 003°08'1916.3
2014-Apr-11 21:23N 52°51' E 002°60'  

Dump ship's entire track history

sailing weather and tide predictions

Deo Volente — PHFJ — position and weather